createdAt,value
2017-10-06T00:01:55.036Z,11.00
2017-10-06T00:04:23.156Z,11.10
2017-10-06T00:06:51.306Z,11.00
2017-10-06T00:09:20.201Z,11.10
2017-10-06T00:11:48.599Z,11.00
2017-10-06T00:14:16.736Z,11.10
2017-10-06T00:16:45.621Z,11.00
2017-10-06T00:19:14.547Z,11.00
2017-10-06T00:21:42.668Z,11.00
2017-10-06T00:24:10.818Z,11.00
2017-10-06T00:26:38.947Z,11.00
2017-10-06T00:29:07.328Z,11.00
2017-10-06T00:31:35.462Z,11.00
2017-10-06T00:34:03.590Z,10.90
2017-10-06T00:36:31.742Z,10.90
2017-10-06T00:38:59.871Z,10.90
2017-10-06T00:41:28.038Z,10.90
2017-10-06T00:43:56.167Z,10.90
2017-10-06T00:46:24.300Z,10.80
2017-10-06T00:48:53.239Z,10.80
2017-10-06T00:51:21.369Z,10.80
2017-10-06T00:53:50.277Z,10.80
2017-10-06T00:56:18.445Z,10.80
2017-10-06T00:58:46.580Z,10.80
2017-10-06T01:01:14.706Z,10.80
2017-10-06T01:03:42.868Z,10.80
2017-10-06T01:06:10.984Z,10.80
2017-10-06T01:08:39.304Z,10.80
2017-10-06T01:11:07.420Z,10.80
2017-10-06T01:13:35.535Z,10.80
2017-10-06T01:16:04.464Z,10.80
2017-10-06T01:18:32.603Z,10.70
2017-10-06T01:21:00.800Z,10.80
2017-10-06T01:23:28.947Z,10.70
2017-10-06T01:25:57.089Z,10.70
2017-10-06T01:28:25.245Z,10.70
2017-10-06T01:30:53.400Z,10.70
2017-10-06T01:33:21.770Z,10.70
2017-10-06T01:35:49.916Z,10.70
2017-10-06T01:38:18.037Z,10.70
2017-10-06T01:40:46.184Z,10.60
2017-10-06T01:43:14.311Z,10.60
2017-10-06T01:45:43.275Z,10.60
2017-10-06T01:48:11.407Z,10.60
2017-10-06T01:50:39.532Z,10.60
2017-10-06T01:53:07.664Z,10.70
2017-10-06T01:55:35.806Z,10.60
2017-10-06T01:58:03.967Z,10.60
2017-10-06T02:00:32.860Z,10.60
2017-10-06T02:03:01.037Z,10.60
2017-10-06T02:05:29.171Z,10.60
2017-10-06T02:07:57.297Z,10.60
2017-10-06T02:10:25.478Z,10.50
2017-10-06T02:12:53.623Z,10.50
2017-10-06T02:15:21.913Z,10.50
2017-10-06T02:17:50.052Z,10.50
2017-10-06T02:20:18.956Z,10.50
2017-10-06T02:22:47.109Z,10.50
2017-10-06T02:25:16.024Z,10.50
2017-10-06T02:27:44.176Z,10.50
2017-10-06T02:30:13.058Z,10.50
2017-10-06T02:32:42.001Z,10.50
2017-10-06T02:35:11.096Z,10.50
2017-10-06T02:37:39.226Z,10.50
2017-10-06T02:40:07.533Z,10.50
2017-10-06T02:42:35.664Z,10.50
2017-10-06T02:45:04.556Z,10.40
2017-10-06T02:47:33.474Z,10.40
2017-10-06T02:50:01.589Z,10.40
2017-10-06T02:52:29.763Z,10.40
2017-10-06T02:54:57.894Z,10.30
2017-10-06T02:57:26.025Z,10.30
2017-10-06T02:59:54.955Z,10.30
2017-10-06T03:02:23.090Z,10.30
2017-10-06T03:04:52.020Z,10.30
2017-10-06T03:07:20.156Z,10.20
2017-10-06T03:09:49.060Z,10.30
2017-10-06T03:12:17.217Z,10.20
2017-10-06T03:14:46.107Z,10.20
2017-10-06T03:17:15.017Z,10.10
2017-10-06T03:19:43.149Z,10.10
2017-10-06T03:22:12.217Z,10.00
2017-10-06T03:24:40.327Z,10.00
2017-10-06T03:27:09.227Z,9.90
2017-10-06T03:29:37.366Z,9.90
2017-10-06T03:32:05.491Z,9.90
2017-10-06T03:34:33.615Z,9.90
2017-10-06T03:37:02.764Z,9.80
2017-10-06T03:39:30.872Z,9.80
2017-10-06T03:41:59.001Z,9.80
2017-10-06T03:44:27.168Z,9.70
2017-10-06T03:46:55.293Z,9.70
2017-10-06T03:49:24.203Z,9.70
2017-10-06T03:51:53.096Z,9.60
2017-10-06T03:54:21.242Z,9.60
2017-10-06T03:56:50.129Z,9.60
2017-10-06T03:59:18.447Z,9.60
2017-10-06T04:01:46.561Z,9.50
2017-10-06T04:04:14.678Z,9.50
2017-10-06T04:06:42.844Z,9.50
2017-10-06T04:09:10.986Z,9.40
2017-10-06T04:11:39.152Z,9.40
2017-10-06T04:14:07.322Z,9.40
2017-10-06T04:16:35.460Z,9.40
2017-10-06T04:19:03.588Z,9.40
2017-10-06T04:21:32.523Z,9.40
2017-10-06T04:24:00.651Z,9.40
2017-10-06T04:26:29.594Z,9.40
2017-10-06T04:28:57.728Z,9.40
2017-10-06T04:31:25.876Z,9.50
2017-10-06T04:33:54.765Z,9.50
2017-10-06T04:36:23.676Z,9.40
2017-10-06T04:38:51.802Z,9.40
2017-10-06T04:41:20.643Z,9.40
2017-10-06T04:43:48.773Z,9.40
2017-10-06T04:46:16.945Z,9.40
2017-10-06T04:48:45.075Z,9.40
2017-10-06T04:51:13.192Z,9.50
2017-10-06T04:53:41.358Z,9.50
2017-10-06T04:56:09.495Z,9.50
2017-10-06T04:58:37.622Z,9.50
2017-10-06T05:01:06.546Z,9.60
2017-10-06T05:03:34.662Z,9.50
2017-10-06T05:06:02.819Z,9.50
2017-10-06T05:08:30.962Z,9.50
2017-10-06T05:10:59.121Z,9.60
2017-10-06T05:13:27.264Z,9.50
2017-10-06T05:15:56.172Z,9.60
2017-10-06T05:18:24.325Z,9.60
2017-10-06T05:20:53.228Z,9.60
2017-10-06T05:23:21.399Z,9.60
2017-10-06T05:25:49.510Z,9.60
2017-10-06T05:28:17.691Z,9.60
2017-10-06T05:30:45.905Z,9.60
2017-10-06T05:33:14.803Z,9.50
2017-10-06T05:35:43.071Z,9.50
2017-10-06T05:38:11.976Z,9.50
2017-10-06T05:40:40.106Z,9.50
2017-10-06T05:43:08.266Z,9.50
2017-10-06T05:45:36.393Z,9.50
2017-10-06T05:48:04.546Z,9.50
2017-10-06T05:50:33.452Z,9.60
2017-10-06T05:53:01.624Z,9.60
2017-10-06T05:55:29.767Z,9.60
2017-10-06T05:57:58.671Z,9.70
2017-10-06T06:00:27.587Z,9.70
2017-10-06T06:02:55.710Z,9.70
2017-10-06T06:05:23.874Z,9.80
2017-10-06T06:07:52.016Z,9.80
2017-10-06T06:10:20.168Z,9.80
2017-10-06T06:12:48.318Z,9.80
2017-10-06T06:15:17.214Z,9.80
2017-10-06T06:17:45.507Z,9.80
2017-10-06T06:20:13.624Z,9.80
2017-10-06T06:22:41.760Z,9.80
2017-10-06T06:25:09.904Z,9.80
2017-10-06T06:27:38.040Z,9.90
2017-10-06T06:30:06.366Z,10.00
2017-10-06T06:32:34.497Z,10.10
2017-10-06T06:35:03.389Z,10.30
2017-10-06T06:37:32.315Z,10.40
2017-10-06T06:40:00.446Z,10.30
2017-10-06T06:42:29.367Z,10.40
2017-10-06T06:44:57.533Z,10.40
2017-10-06T06:47:25.656Z,10.40
2017-10-06T06:49:53.913Z,10.40
2017-10-06T06:52:22.050Z,10.30
2017-10-06T06:54:50.173Z,10.30
2017-10-06T06:57:18.338Z,10.30
2017-10-06T06:59:46.491Z,10.30
2017-10-06T07:02:14.753Z,10.30
2017-10-06T07:04:42.886Z,10.30
2017-10-06T07:07:11.785Z,10.50
2017-10-06T07:09:40.765Z,10.60
2017-10-06T07:12:09.673Z,10.60
2017-10-06T07:14:37.816Z,10.60
2017-10-06T07:17:05.998Z,10.70
2017-10-06T07:19:34.897Z,10.70
2017-10-06T07:22:03.320Z,10.60
2017-10-06T07:24:31.479Z,10.70
2017-10-06T07:26:59.623Z,10.70
2017-10-06T07:29:27.776Z,10.70
2017-10-06T07:31:56.687Z,10.90
2017-10-06T07:34:24.910Z,10.90
2017-10-06T07:36:53.037Z,11.10
2017-10-06T07:39:21.166Z,11.30
2017-10-06T07:41:49.361Z,11.50
2017-10-06T07:44:18.248Z,11.90
2017-10-06T07:46:47.152Z,12.10
2017-10-06T07:49:15.310Z,12.10
2017-10-06T07:51:44.214Z,12.50
2017-10-06T07:54:13.248Z,12.70
2017-10-06T07:56:41.374Z,12.70
2017-10-06T07:59:10.275Z,12.70
2017-10-06T08:01:38.442Z,12.70
2017-10-06T08:04:06.634Z,12.60
2017-10-06T08:06:34.924Z,12.50
2017-10-06T08:09:03.040Z,12.60
2017-10-06T08:11:31.922Z,12.70
2017-10-06T08:14:00.068Z,12.80
2017-10-06T08:16:28.202Z,13.00
2017-10-06T08:18:56.331Z,13.20
2017-10-06T08:21:24.486Z,13.40
2017-10-06T08:23:52.623Z,13.70
2017-10-06T08:26:20.787Z,13.90
2017-10-06T08:28:48.917Z,14.00
2017-10-06T08:31:17.068Z,14.20
2017-10-06T08:33:46.020Z,14.40
2017-10-06T08:36:14.150Z,14.40
2017-10-06T08:38:42.292Z,14.50
2017-10-06T08:41:10.435Z,14.50
2017-10-06T08:43:38.594Z,14.50
2017-10-06T08:46:06.714Z,14.60
2017-10-06T08:48:34.974Z,14.40
2017-10-06T08:51:03.103Z,14.40
2017-10-06T08:53:31.987Z,14.50
2017-10-06T08:56:01.072Z,14.60
2017-10-06T08:58:29.972Z,14.80
2017-10-06T09:00:58.887Z,15.00
2017-10-06T09:03:27.053Z,15.00
2017-10-06T09:05:55.177Z,15.20
2017-10-06T09:08:23.306Z,15.40
2017-10-06T09:10:51.569Z,15.70
2017-10-06T09:13:19.751Z,15.60
2017-10-06T09:15:47.887Z,15.40
2017-10-06T09:18:16.807Z,15.30
2017-10-06T09:20:44.927Z,15.30
2017-10-06T09:23:13.157Z,15.30
2017-10-06T09:25:41.289Z,15.10
2017-10-06T09:28:10.177Z,14.90
2017-10-06T09:30:39.195Z,14.80
2017-10-06T09:33:07.322Z,14.80
2017-10-06T09:35:35.452Z,14.70
2017-10-06T09:38:03.826Z,14.80
2017-10-06T09:40:31.967Z,14.80
2017-10-06T09:43:00.866Z,14.90
2017-10-06T09:45:29.049Z,14.90
2017-10-06T09:47:57.191Z,14.90
2017-10-06T09:50:26.316Z,15.50
2017-10-06T09:52:54.469Z,15.50
2017-10-06T09:55:23.361Z,15.90
2017-10-06T09:57:51.534Z,15.90
2017-10-06T10:00:19.679Z,15.70
2017-10-06T10:02:47.814Z,15.50
2017-10-06T10:05:15.966Z,15.30
2017-10-06T10:07:44.101Z,15.00
2017-10-06T10:10:13.027Z,14.60
2017-10-06T10:12:41.148Z,14.60
2017-10-06T10:15:09.482Z,14.70
2017-10-06T10:17:37.619Z,14.70
2017-10-06T10:20:06.510Z,14.60
2017-10-06T10:22:35.434Z,14.40
2017-10-06T10:25:03.560Z,14.40
2017-10-06T10:27:32.472Z,14.00
2017-10-06T10:30:00.608Z,13.90
2017-10-06T10:32:28.727Z,13.70
2017-10-06T10:34:56.890Z,13.50
2017-10-06T10:37:25.012Z,13.40
2017-10-06T10:39:53.171Z,13.20
2017-10-06T10:42:21.296Z,13.10
2017-10-06T10:44:49.441Z,13.00
2017-10-06T10:47:17.578Z,13.00
2017-10-06T10:49:45.833Z,13.10
2017-10-06T10:52:13.980Z,13.20
2017-10-06T10:54:42.111Z,13.20
2017-10-06T10:57:10.380Z,13.20
2017-10-06T10:59:38.509Z,13.10
2017-10-06T11:02:06.657Z,13.20
2017-10-06T11:04:35.583Z,13.30
2017-10-06T11:07:03.722Z,13.30
2017-10-06T11:09:32.855Z,13.20
2017-10-06T11:12:01.004Z,13.20
2017-10-06T11:14:29.140Z,13.10
2017-10-06T11:16:57.555Z,13.10
2017-10-06T11:19:25.700Z,13.10
2017-10-06T11:21:54.606Z,13.20
2017-10-06T11:24:22.892Z,13.20
2017-10-06T11:26:51.036Z,13.30
2017-10-06T11:29:19.924Z,13.40
2017-10-06T11:31:48.956Z,13.50
2017-10-06T11:34:17.086Z,13.50
2017-10-06T11:36:46.141Z,13.40
2017-10-06T11:39:14.278Z,13.40
2017-10-06T11:41:42.408Z,13.30
2017-10-06T11:44:10.579Z,13.20
2017-10-06T11:46:38.808Z,13.20
2017-10-06T11:49:06.946Z,13.20
2017-10-06T11:51:36.075Z,13.00
2017-10-06T11:54:04.195Z,13.00
2017-10-06T11:56:32.320Z,13.00
2017-10-06T11:59:00.470Z,13.00
2017-10-06T12:01:28.597Z,13.00
2017-10-06T12:03:56.885Z,13.00
2017-10-06T12:06:25.080Z,12.90
2017-10-06T12:08:53.983Z,12.90
2017-10-06T12:11:23.091Z,12.90
2017-10-06T12:13:51.237Z,12.90
2017-10-06T12:16:20.148Z,13.10
2017-10-06T12:18:48.313Z,13.10
2017-10-06T12:21:16.433Z,13.10
2017-10-06T12:23:44.605Z,13.20
2017-10-06T12:26:13.498Z,13.10
2017-10-06T12:28:41.644Z,13.10
2017-10-06T12:31:09.761Z,13.10
2017-10-06T12:33:38.695Z,13.20
2017-10-06T12:36:06.866Z,13.20
2017-10-06T12:38:35.006Z,13.30
2017-10-06T12:41:03.942Z,13.50
2017-10-06T12:43:32.087Z,13.50
2017-10-06T12:46:00.240Z,13.60
2017-10-06T12:48:28.402Z,13.60
2017-10-06T12:50:57.317Z,13.70
2017-10-06T12:53:25.734Z,13.70
2017-10-06T12:55:53.881Z,13.70
2017-10-06T12:58:22.018Z,13.70
2017-10-06T13:00:50.177Z,13.70
2017-10-06T13:03:19.072Z,13.40
2017-10-06T13:05:47.993Z,13.10
2017-10-06T13:08:16.170Z,13.10
2017-10-06T13:10:44.304Z,12.80
2017-10-06T13:13:13.260Z,12.00
2017-10-06T13:15:41.411Z,11.90
2017-10-06T13:18:09.750Z,11.60
2017-10-06T13:20:38.641Z,10.80
2017-10-06T13:23:07.545Z,10.60
2017-10-06T13:25:35.839Z,10.50
2017-10-06T13:28:03.964Z,10.30
2017-10-06T13:30:32.848Z,10.20
2017-10-06T13:33:01.757Z,10.20
2017-10-06T13:35:29.879Z,10.10
2017-10-06T13:37:58.069Z,10.10
2017-10-06T13:40:26.206Z,10.10
2017-10-06T13:42:54.328Z,10.00
2017-10-06T13:45:23.336Z,9.90
2017-10-06T13:47:51.462Z,9.80
2017-10-06T13:50:19.592Z,9.80
2017-10-06T13:52:47.770Z,9.70
2017-10-06T13:55:15.894Z,9.70
2017-10-06T13:57:44.115Z,9.70
2017-10-06T14:00:12.247Z,9.60
2017-10-06T14:02:41.148Z,9.70
2017-10-06T14:05:09.313Z,9.70
2017-10-06T14:07:38.201Z,9.80
2017-10-06T14:10:07.220Z,9.80
2017-10-06T14:12:35.352Z,9.80
2017-10-06T14:15:03.486Z,9.90
2017-10-06T14:17:31.667Z,9.90
2017-10-06T14:19:59.915Z,10.00
2017-10-06T14:22:28.036Z,10.00
2017-10-06T14:24:56.476Z,10.00
2017-10-06T14:27:24.598Z,10.00
2017-10-06T14:29:53.485Z,9.80
2017-10-06T14:32:22.393Z,9.60
2017-10-06T14:34:50.523Z,9.60
2017-10-06T14:37:18.664Z,9.40
2017-10-06T14:39:46.790Z,9.20
2017-10-06T14:42:15.812Z,9.00
2017-10-06T14:44:43.928Z,9.00
2017-10-06T14:47:12.044Z,8.90
2017-10-06T14:49:40.438Z,8.80
2017-10-06T14:52:08.552Z,8.70
2017-10-06T14:54:36.693Z,8.70
2017-10-06T14:57:04.938Z,8.60
2017-10-06T14:59:33.063Z,8.60
2017-10-06T15:02:01.298Z,8.70
2017-10-06T15:04:29.450Z,8.70
2017-10-06T15:06:57.579Z,8.70
2017-10-06T15:09:26.018Z,8.70
2017-10-06T15:11:54.135Z,8.70
2017-10-06T15:14:22.253Z,8.80
2017-10-06T15:16:50.411Z,8.80
2017-10-06T15:19:18.536Z,8.80
2017-10-06T15:21:46.657Z,8.80
2017-10-06T15:24:14.983Z,8.90
2017-10-06T15:26:43.121Z,9.00
2017-10-06T15:29:11.294Z,9.00
2017-10-06T15:31:39.612Z,9.00
2017-10-06T15:34:07.738Z,9.10
2017-10-06T15:36:35.869Z,9.00
2017-10-06T15:39:04.815Z,9.00
2017-10-06T15:41:33.073Z,9.00
2017-10-06T15:44:01.194Z,9.00
2017-10-06T15:46:29.370Z,9.00
2017-10-06T15:48:57.496Z,9.00
2017-10-06T15:51:25.661Z,9.10
2017-10-06T15:53:53.793Z,9.10
2017-10-06T15:56:22.683Z,9.10
2017-10-06T15:58:51.624Z,9.10
2017-10-06T16:01:19.750Z,9.10
2017-10-06T16:03:48.638Z,9.10
2017-10-06T16:06:17.661Z,9.10
2017-10-06T16:08:45.768Z,9.10
2017-10-06T16:11:14.658Z,9.10
2017-10-06T16:13:42.800Z,9.10
2017-10-06T16:16:10.940Z,9.10
2017-10-06T16:18:39.235Z,9.10
2017-10-06T16:21:07.578Z,9.10
2017-10-06T16:23:36.462Z,9.10
2017-10-06T16:26:05.375Z,9.10
2017-10-06T16:28:33.515Z,9.10
2017-10-06T16:31:01.677Z,9.10
2017-10-06T16:33:29.803Z,9.00
2017-10-06T16:35:57.926Z,9.00
2017-10-06T16:38:26.095Z,9.00
2017-10-06T16:40:54.224Z,9.00
2017-10-06T16:43:22.365Z,9.00
2017-10-06T16:45:51.259Z,9.00
2017-10-06T16:48:19.394Z,9.00
2017-10-06T16:50:47.550Z,9.00
2017-10-06T16:53:15.675Z,9.00
2017-10-06T16:55:43.936Z,9.00
2017-10-06T16:58:12.820Z,8.90
2017-10-06T17:00:41.734Z,9.00
2017-10-06T17:03:09.890Z,8.90
2017-10-06T17:05:38.784Z,9.00
2017-10-06T17:08:07.705Z,9.00
2017-10-06T17:10:35.843Z,9.00
2017-10-06T17:13:04.864Z,9.00
2017-10-06T17:15:33.127Z,9.00
2017-10-06T17:18:01.597Z,9.00
2017-10-06T17:20:29.718Z,9.00
2017-10-06T17:22:58.816Z,9.00
2017-10-06T17:25:26.945Z,9.00
2017-10-06T17:27:55.340Z,9.00
2017-10-06T17:30:24.357Z,9.00
2017-10-06T17:32:52.480Z,9.00
2017-10-06T17:35:20.643Z,9.00
2017-10-06T17:37:48.782Z,9.00
2017-10-06T17:40:17.009Z,9.00
2017-10-06T17:42:45.178Z,9.00
2017-10-06T17:45:13.337Z,9.00
2017-10-06T17:47:41.606Z,9.00
2017-10-06T17:50:09.758Z,9.00
2017-10-06T17:52:38.712Z,9.00
2017-10-06T17:55:06.886Z,9.00
2017-10-06T17:57:35.014Z,9.00
2017-10-06T18:00:03.763Z,9.00
2017-10-06T18:02:32.704Z,9.10
2017-10-06T18:05:01.418Z,9.10
2017-10-06T18:07:30.180Z,9.10
2017-10-06T18:09:59.361Z,9.10
2017-10-06T18:12:28.904Z,9.00
2017-10-06T18:14:58.437Z,9.00
2017-10-06T18:17:26.962Z,9.00
2017-10-06T18:19:55.617Z,9.00
2017-10-06T18:22:25.067Z,9.00
2017-10-06T18:24:54.665Z,9.10
2017-10-06T18:27:24.275Z,9.00
2017-10-06T18:29:54.984Z,9.00
2017-10-06T18:32:25.414Z,9.00
2017-10-06T18:34:56.242Z,9.00
2017-10-06T18:37:27.017Z,9.00
2017-10-06T18:39:56.667Z,9.00
2017-10-06T18:42:27.445Z,8.90
2017-10-06T18:44:57.288Z,9.00
2017-10-06T18:47:27.474Z,9.00
2017-10-06T18:49:57.383Z,8.90
2017-10-06T18:52:27.647Z,8.90
2017-10-06T18:54:57.460Z,8.90
2017-10-06T18:57:27.561Z,9.00
2017-10-06T18:59:57.475Z,8.90
2017-10-06T19:02:38.913Z,9.00
2017-10-06T19:05:08.509Z,8.90
2017-10-06T19:07:38.836Z,8.90
2017-10-06T19:10:08.903Z,8.90
2017-10-06T19:12:38.332Z,8.90
2017-10-06T19:15:08.371Z,8.90
2017-10-06T19:17:38.496Z,8.90
2017-10-06T19:20:07.810Z,8.90
2017-10-06T19:22:37.187Z,8.90
2017-10-06T19:25:06.654Z,8.90
2017-10-06T19:27:36.558Z,9.00
2017-10-06T19:30:06.557Z,8.90
2017-10-06T19:32:36.555Z,9.00
2017-10-06T19:35:06.683Z,9.00
2017-10-06T19:37:36.168Z,9.00
2017-10-06T19:40:06.462Z,9.00
2017-10-06T19:42:36.696Z,9.00
2017-10-06T19:45:06.960Z,9.00
2017-10-06T19:47:37.771Z,9.00
2017-10-06T19:50:07.176Z,9.00
2017-10-06T19:52:36.629Z,9.00
2017-10-06T19:55:06.993Z,9.10
2017-10-06T19:57:36.296Z,9.00
2017-10-06T20:00:06.888Z,9.10
2017-10-06T20:02:36.207Z,9.10
2017-10-06T20:05:05.529Z,9.10
2017-10-06T20:07:35.107Z,9.10
2017-10-06T20:10:04.414Z,9.10
2017-10-06T20:12:33.737Z,9.10
2017-10-06T20:15:03.157Z,9.10
2017-10-06T20:17:32.499Z,9.00
2017-10-06T20:20:01.896Z,9.00
2017-10-06T20:22:31.196Z,9.00
2017-10-06T20:25:02.291Z,9.00
2017-10-06T20:27:31.503Z,9.00
2017-10-06T20:30:01.353Z,9.00
2017-10-06T20:32:32.128Z,9.00
2017-10-06T20:35:02.066Z,9.00
2017-10-06T20:37:31.937Z,9.00
2017-10-06T20:40:01.989Z,9.00
2017-10-06T20:42:31.494Z,9.00
2017-10-06T20:45:00.933Z,9.00
2017-10-06T20:47:30.292Z,9.10
2017-10-06T20:49:59.600Z,9.10
2017-10-06T20:52:28.841Z,9.10
2017-10-06T20:54:58.536Z,9.10
2017-10-06T20:57:27.786Z,9.10
2017-10-06T20:59:56.979Z,9.10
2017-10-06T21:02:26.322Z,9.10
2017-10-06T21:04:56.208Z,9.10
2017-10-06T21:07:25.436Z,9.10
2017-10-06T21:09:54.955Z,9.00
2017-10-06T21:12:24.770Z,9.00
2017-10-06T21:14:53.229Z,9.00
2017-10-06T21:17:21.432Z,9.00
2017-10-06T21:19:49.608Z,9.00
2017-10-06T21:22:17.738Z,9.00
2017-10-06T21:24:45.917Z,9.00
2017-10-06T21:27:14.056Z,9.00
2017-10-06T21:29:42.946Z,9.00
2017-10-06T21:32:11.881Z,9.00
2017-10-06T21:34:40.005Z,9.00
2017-10-06T21:37:09.044Z,9.00
2017-10-06T21:39:37.173Z,9.00
2017-10-06T21:42:06.074Z,9.00
2017-10-06T21:44:34.226Z,9.00
2017-10-06T21:47:03.128Z,9.10
2017-10-06T21:49:31.282Z,9.00
2017-10-06T21:52:00.178Z,9.10
2017-10-06T21:54:29.149Z,9.10
2017-10-06T21:56:57.288Z,9.10
2017-10-06T21:59:26.265Z,9.10
2017-10-06T22:01:54.417Z,9.10
2017-10-06T22:04:22.609Z,9.10
2017-10-06T22:06:50.861Z,9.10
2017-10-06T22:09:18.985Z,9.10
2017-10-06T22:11:47.096Z,9.10
2017-10-06T22:14:16.010Z,9.10
2017-10-06T22:16:44.134Z,9.10
2017-10-06T22:19:12.380Z,9.10
2017-10-06T22:21:40.497Z,9.10
2017-10-06T22:24:09.434Z,9.10
2017-10-06T22:26:37.694Z,9.10
2017-10-06T22:29:05.826Z,9.10
2017-10-06T22:31:34.722Z,9.10
2017-10-06T22:34:03.644Z,9.10
2017-10-06T22:36:31.757Z,9.10
2017-10-06T22:39:00.181Z,9.10
2017-10-06T22:41:28.295Z,9.10
2017-10-06T22:43:56.416Z,9.10
2017-10-06T22:46:24.542Z,9.10
2017-10-06T22:48:52.672Z,9.10
2017-10-06T22:51:20.803Z,9.10
2017-10-06T22:53:48.908Z,9.10
2017-10-06T22:56:17.027Z,9.10
2017-10-06T22:58:45.159Z,9.10
2017-10-06T23:01:13.265Z,9.10
2017-10-06T23:03:41.696Z,9.10
2017-10-06T23:06:09.813Z,9.10
2017-10-06T23:08:37.933Z,9.10
2017-10-06T23:11:06.121Z,9.10
2017-10-06T23:13:34.237Z,9.10
2017-10-06T23:16:02.485Z,9.10
2017-10-06T23:18:30.592Z,9.10
2017-10-06T23:20:58.709Z,9.10
2017-10-06T23:23:26.843Z,9.10
2017-10-06T23:25:55.730Z,9.10
2017-10-06T23:28:24.756Z,9.10
2017-10-06T23:30:52.881Z,9.10
2017-10-06T23:33:20.998Z,9.10
2017-10-06T23:35:49.154Z,9.10
2017-10-06T23:38:17.273Z,9.10
2017-10-06T23:40:45.426Z,9.10
2017-10-06T23:43:13.544Z,9.10
2017-10-06T23:45:41.684Z,9.10
2017-10-06T23:48:10.578Z,9.10
2017-10-06T23:50:39.485Z,9.20
2017-10-06T23:53:07.597Z,9.10
2017-10-06T23:55:35.973Z,9.20
2017-10-06T23:58:04.088Z,9.20
